createdAt,value
2017-08-15T00:00:06.426Z,71.80
2017-08-15T00:02:34.003Z,71.30
2017-08-15T00:05:01.550Z,71.40
2017-08-15T00:07:29.078Z,71.00
2017-08-15T00:09:56.664Z,71.50
2017-08-15T00:12:24.248Z,71.60
2017-08-15T00:14:51.757Z,71.20
2017-08-15T00:17:19.309Z,71.20
2017-08-15T00:19:46.872Z,70.60
2017-08-15T00:22:15.187Z,71.20
2017-08-15T00:24:42.775Z,71.10
2017-08-15T00:27:10.315Z,71.00
2017-08-15T00:29:37.830Z,71.50
2017-08-15T00:32:06.145Z,71.30
2017-08-15T00:34:33.667Z,71.20
2017-08-15T00:37:01.283Z,71.10
2017-08-15T00:39:28.850Z,72.00
2017-08-15T00:41:56.460Z,71.50
2017-08-15T00:44:23.985Z,71.60
2017-08-15T00:46:51.535Z,72.20
2017-08-15T00:49:19.059Z,72.20
2017-08-15T00:51:46.612Z,71.40
2017-08-15T00:54:14.225Z,71.50
2017-08-15T00:56:41.752Z,72.10
2017-08-15T00:59:09.262Z,72.30
2017-08-15T01:01:37.609Z,71.90
2017-08-15T01:04:05.143Z,71.90
2017-08-15T01:06:32.710Z,71.50
2017-08-15T01:09:00.226Z,71.50
2017-08-15T01:11:28.606Z,71.70
2017-08-15T01:13:56.925Z,71.50
2017-08-15T01:16:24.472Z,71.30
2017-08-15T01:18:52.050Z,71.70
2017-08-15T01:21:19.593Z,72.60
2017-08-15T01:23:47.111Z,72.30
2017-08-15T01:26:14.637Z,71.40
2017-08-15T01:28:42.165Z,70.90
2017-08-15T01:31:09.690Z,70.80
2017-08-15T01:33:37.223Z,71.30
2017-08-15T01:36:04.794Z,71.70
2017-08-15T01:38:32.371Z,72.10
2017-08-15T01:41:00.687Z,73.10
2017-08-15T01:43:28.220Z,72.00
2017-08-15T01:45:56.524Z,71.60
2017-08-15T01:48:24.052Z,71.60
2017-08-15T01:50:52.346Z,71.40
2017-08-15T01:53:19.886Z,71.30
2017-08-15T01:55:48.216Z,70.70
2017-08-15T01:58:15.742Z,70.70
2017-08-15T02:00:43.309Z,71.30
2017-08-15T02:03:10.828Z,70.80
2017-08-15T02:05:38.368Z,71.10
2017-08-15T02:08:05.889Z,71.20
2017-08-15T02:10:33.419Z,71.50
2017-08-15T02:13:01.824Z,72.00
2017-08-15T02:15:29.349Z,71.00
2017-08-15T02:17:56.886Z,70.70
2017-08-15T02:20:24.404Z,71.30
2017-08-15T02:22:51.932Z,71.10
2017-08-15T02:25:19.437Z,70.60
2017-08-15T02:27:46.971Z,70.80
2017-08-15T02:30:15.289Z,71.30
2017-08-15T02:32:42.839Z,71.20
2017-08-15T02:35:10.368Z,71.20
2017-08-15T02:37:38.681Z,71.50
2017-08-15T02:40:06.216Z,71.40
2017-08-15T02:42:33.766Z,71.20
2017-08-15T02:45:02.072Z,71.00
2017-08-15T02:47:29.610Z,70.90
2017-08-15T02:49:57.929Z,70.50
2017-08-15T02:52:25.457Z,70.50
2017-08-15T02:54:53.038Z,70.70
2017-08-15T02:57:20.569Z,70.90
2017-08-15T02:59:48.069Z,70.70
2017-08-15T03:02:15.613Z,70.80
2017-08-15T03:04:43.121Z,71.50
2017-08-15T03:07:10.662Z,71.30
2017-08-15T03:09:38.198Z,71.90
2017-08-15T03:12:05.736Z,71.50
2017-08-15T03:14:33.238Z,70.90
2017-08-15T03:17:00.782Z,70.60
2017-08-15T03:19:28.293Z,70.90
2017-08-15T03:21:56.605Z,70.90
2017-08-15T03:24:24.130Z,70.90
2017-08-15T03:26:52.445Z,71.00
2017-08-15T03:29:19.966Z,70.90
2017-08-15T03:31:47.540Z,70.80
2017-08-15T03:34:15.078Z,71.20
2017-08-15T03:36:42.607Z,70.50
2017-08-15T03:39:10.177Z,71.00
2017-08-15T03:41:37.702Z,70.50
2017-08-15T03:44:05.232Z,71.20
2017-08-15T03:46:33.535Z,70.80
2017-08-15T03:49:01.064Z,70.80
2017-08-15T03:51:29.352Z,71.00
2017-08-15T03:53:56.881Z,70.90
2017-08-15T03:56:24.416Z,70.70
2017-08-15T03:58:52.767Z,71.50
2017-08-15T04:01:20.305Z,70.70
2017-08-15T04:03:47.833Z,70.10
2017-08-15T04:06:15.390Z,70.20
2017-08-15T04:08:42.903Z,70.10
2017-08-15T04:11:10.459Z,70.90
2017-08-15T04:13:37.995Z,70.20
2017-08-15T04:16:06.325Z,70.40
2017-08-15T04:18:33.829Z,70.40
2017-08-15T04:21:02.108Z,70.00
2017-08-15T04:23:30.488Z,69.30
2017-08-15T04:25:58.775Z,69.00
2017-08-15T04:28:26.325Z,68.90
2017-08-15T04:30:54.609Z,69.60
2017-08-15T04:33:22.135Z,69.60
2017-08-15T04:35:49.650Z,69.70
2017-08-15T04:38:17.194Z,69.50
2017-08-15T04:40:44.705Z,70.10
2017-08-15T04:43:12.262Z,70.20
2017-08-15T04:45:39.838Z,70.50
2017-08-15T04:48:07.362Z,70.10
2017-08-15T04:50:34.867Z,69.90
2017-08-15T04:53:02.462Z,70.40
2017-08-15T04:55:29.995Z,70.00
2017-08-15T04:57:57.540Z,70.10
2017-08-15T05:00:25.815Z,70.70
2017-08-15T05:02:53.364Z,70.00
2017-08-15T05:05:20.870Z,70.20
2017-08-15T05:07:48.411Z,69.60
2017-08-15T05:10:15.978Z,70.10
2017-08-15T05:12:43.534Z,70.30
2017-08-15T05:15:11.831Z,70.00
2017-08-15T05:17:39.382Z,70.00
2017-08-15T05:20:06.917Z,70.10
2017-08-15T05:22:34.495Z,70.50
2017-08-15T05:25:02.008Z,70.30
2017-08-15T05:27:29.587Z,70.60
2017-08-15T05:29:57.138Z,70.90
2017-08-15T05:32:24.673Z,70.40
2017-08-15T05:34:52.207Z,70.80
2017-08-15T05:37:19.825Z,70.70
2017-08-15T05:39:47.401Z,70.90
2017-08-15T05:42:15.009Z,70.80
2017-08-15T05:44:42.522Z,70.90
2017-08-15T05:47:10.838Z,71.40
2017-08-15T05:49:38.456Z,71.30
2017-08-15T05:52:06.805Z,71.60
2017-08-15T05:54:34.332Z,71.10
2017-08-15T05:57:01.879Z,71.20
2017-08-15T05:59:29.440Z,70.90
2017-08-15T06:01:56.979Z,70.80
2017-08-15T06:04:24.506Z,70.30
2017-08-15T06:06:52.043Z,70.60
2017-08-15T06:09:19.574Z,70.60
2017-08-15T06:11:47.179Z,70.70
2017-08-15T06:14:14.696Z,70.50
2017-08-15T06:16:42.453Z,70.40
2017-08-15T06:19:10.738Z,69.30
2017-08-15T06:21:38.260Z,69.30
2017-08-15T06:24:05.786Z,68.70
2017-08-15T06:26:33.350Z,67.90
2017-08-15T06:29:00.914Z,63.80
2017-08-15T06:31:28.474Z,60.90
2017-08-15T06:33:55.998Z,61.10
2017-08-15T06:36:23.554Z,61.90
2017-08-15T06:38:51.846Z,59.20
2017-08-15T06:41:19.391Z,59.10
2017-08-15T06:43:47.682Z,52.00
2017-08-15T06:46:15.198Z,51.90
2017-08-15T06:48:42.758Z,51.70
2017-08-15T06:51:10.287Z,50.10
2017-08-15T06:53:37.856Z,47.30
2017-08-15T06:56:05.386Z,46.20
2017-08-15T06:58:32.939Z,45.70
2017-08-15T07:01:00.445Z,44.90
2017-08-15T07:03:27.999Z,41.20
2017-08-15T07:05:55.544Z,40.80
2017-08-15T07:08:23.081Z,39.70
2017-08-15T07:10:50.601Z,39.90
2017-08-15T07:13:18.910Z,41.70
2017-08-15T07:15:46.427Z,41.60
2017-08-15T07:18:13.954Z,42.50
2017-08-15T07:20:41.450Z,43.50
2017-08-15T07:23:09.070Z,44.50
2017-08-15T07:25:36.582Z,45.20
2017-08-15T07:28:04.134Z,45.30
2017-08-15T07:30:31.662Z,45.90
2017-08-15T07:32:59.216Z,45.70
2017-08-15T07:35:26.718Z,46.90
2017-08-15T07:37:54.539Z,48.00
2017-08-15T07:40:22.146Z,47.60
2017-08-15T07:42:49.682Z,47.30
2017-08-15T07:45:17.202Z,46.70
2017-08-15T07:47:44.775Z,48.40
2017-08-15T07:50:12.293Z,48.70
2017-08-15T07:52:40.619Z,48.70
2017-08-15T07:55:08.269Z,48.60
2017-08-15T07:57:35.803Z,47.20
2017-08-15T08:00:03.354Z,45.20
2017-08-15T08:02:31.666Z,42.80
2017-08-15T08:04:59.219Z,42.60
2017-08-15T08:07:26.775Z,42.00
2017-08-15T08:09:54.291Z,41.90
2017-08-15T08:12:21.847Z,39.60
2017-08-15T08:14:49.350Z,40.60
2017-08-15T08:17:16.908Z,40.90
2017-08-15T08:19:44.490Z,43.30
2017-08-15T08:22:12.054Z,43.70
2017-08-15T08:24:39.571Z,43.10
2017-08-15T08:27:07.853Z,41.20
2017-08-15T08:29:36.173Z,42.20
2017-08-15T08:32:03.674Z,42.20
2017-08-15T08:34:31.191Z,42.30
2017-08-15T08:36:58.740Z,42.80
2017-08-15T08:39:26.278Z,43.20
2017-08-15T08:41:53.773Z,44.00
2017-08-15T08:44:21.336Z,43.90
2017-08-15T08:46:48.840Z,43.40
2017-08-15T08:49:17.118Z,44.20
2017-08-15T08:51:45.399Z,44.50
2017-08-15T08:54:13.709Z,45.80
2017-08-15T08:56:41.249Z,45.80
2017-08-15T08:59:08.793Z,45.70
2017-08-15T09:01:37.109Z,46.80
2017-08-15T09:04:04.649Z,46.80
2017-08-15T09:06:32.149Z,46.40
2017-08-15T09:08:59.702Z,47.10
2017-08-15T09:11:27.260Z,48.40
2017-08-15T09:13:54.782Z,45.80
2017-08-15T09:16:22.379Z,46.00
2017-08-15T09:18:49.968Z,46.50
2017-08-15T09:21:17.505Z,47.60
2017-08-15T09:23:45.046Z,47.30
2017-08-15T09:26:12.566Z,47.10
2017-08-15T09:28:40.898Z,46.40
2017-08-15T09:31:08.432Z,46.40
2017-08-15T09:33:36.000Z,45.90
2017-08-15T09:36:03.513Z,46.20
2017-08-15T09:38:31.034Z,45.80
2017-08-15T09:40:58.551Z,47.40
2017-08-15T09:43:26.071Z,48.00
2017-08-15T09:45:53.596Z,46.60
2017-08-15T09:48:21.130Z,46.10
2017-08-15T09:50:49.408Z,47.80
2017-08-15T09:53:17.741Z,47.40
2017-08-15T09:55:45.277Z,47.30
2017-08-15T09:58:18.578Z,47.60
2017-08-15T10:00:46.108Z,48.20
2017-08-15T10:03:13.665Z,48.40
2017-08-15T10:05:41.185Z,48.60
2017-08-15T10:08:08.714Z,48.40
2017-08-15T10:10:36.272Z,48.70
2017-08-15T10:13:03.818Z,49.10
2017-08-15T10:15:31.324Z,48.80
2017-08-15T10:17:58.883Z,48.60
2017-08-15T10:20:26.391Z,48.00
2017-08-15T10:22:53.908Z,48.40
2017-08-15T10:25:21.438Z,48.80
2017-08-15T10:27:48.945Z,49.30
2017-08-15T10:30:17.249Z,49.90
2017-08-15T10:32:44.780Z,49.90
2017-08-15T10:35:13.097Z,50.50
2017-08-15T10:37:40.613Z,50.40
2017-08-15T10:40:08.173Z,50.60
2017-08-15T10:42:36.485Z,51.50
2017-08-15T10:45:04.016Z,51.40
2017-08-15T10:47:32.320Z,52.70
2017-08-15T10:49:59.910Z,52.70
2017-08-15T10:52:27.519Z,53.70
2017-08-15T10:54:55.834Z,53.30
2017-08-15T10:57:23.359Z,53.30
2017-08-15T10:59:50.903Z,53.90
2017-08-15T11:02:19.229Z,55.80
2017-08-15T11:04:46.790Z,55.20
2017-08-15T11:07:14.352Z,55.30
2017-08-15T11:09:41.912Z,55.60
2017-08-15T11:12:09.422Z,55.70
2017-08-15T11:14:37.988Z,56.20
2017-08-15T11:17:05.498Z,56.10
2017-08-15T11:19:33.019Z,55.40
2017-08-15T11:22:00.558Z,56.00
2017-08-15T11:24:28.106Z,55.70
2017-08-15T11:26:55.726Z,55.30
2017-08-15T11:29:23.267Z,54.70
2017-08-15T11:31:50.804Z,53.40
2017-08-15T11:34:18.335Z,53.80
2017-08-15T11:36:45.853Z,53.20
2017-08-15T11:39:13.412Z,53.40
2017-08-15T11:41:40.989Z,52.80
2017-08-15T11:44:08.550Z,53.10
2017-08-15T11:46:36.099Z,50.50
2017-08-15T11:49:03.680Z,50.50
2017-08-15T11:51:31.192Z,45.90
2017-08-15T11:53:58.737Z,44.70
2017-08-15T11:56:26.258Z,43.50
2017-08-15T11:58:53.823Z,38.20
2017-08-15T12:01:21.342Z,38.50
2017-08-15T12:03:49.666Z,38.00
2017-08-15T12:06:17.260Z,37.90
2017-08-15T12:08:44.793Z,39.80
2017-08-15T12:11:12.317Z,38.00
2017-08-15T12:13:39.850Z,40.20
2017-08-15T12:16:07.380Z,39.40
2017-08-15T12:18:34.897Z,39.30
2017-08-15T12:21:03.165Z,42.10
2017-08-15T12:23:31.464Z,40.30
2017-08-15T12:25:59.050Z,40.20
2017-08-15T12:28:26.606Z,39.90
2017-08-15T12:30:54.151Z,40.50
2017-08-15T12:33:21.686Z,40.50
2017-08-15T12:35:49.256Z,39.30
2017-08-15T12:38:16.798Z,40.30
2017-08-15T12:40:45.112Z,35.70
2017-08-15T12:43:12.717Z,35.70
2017-08-15T12:45:41.085Z,33.50
2017-08-15T12:48:08.630Z,32.70
2017-08-15T12:50:36.178Z,28.70
2017-08-15T12:53:03.749Z,28.30
2017-08-15T12:55:31.270Z,27.40
2017-08-15T12:57:58.771Z,27.20
2017-08-15T13:00:26.337Z,27.00
2017-08-15T13:02:53.878Z,25.60
2017-08-15T13:05:21.403Z,25.10
2017-08-15T13:07:49.693Z,24.40
2017-08-15T13:10:17.251Z,24.30
2017-08-15T13:12:44.785Z,25.20
2017-08-15T13:15:12.393Z,26.10
2017-08-15T13:17:39.902Z,28.00
2017-08-15T13:20:07.445Z,29.10
2017-08-15T13:22:34.954Z,27.60
2017-08-15T13:25:02.494Z,28.70
2017-08-15T13:27:30.769Z,29.80
2017-08-15T13:29:58.389Z,29.80
2017-08-15T13:32:25.918Z,30.60
2017-08-15T13:34:53.466Z,31.50
2017-08-15T13:37:20.982Z,33.30
2017-08-15T13:39:48.548Z,36.10
2017-08-15T13:42:16.507Z,36.80
2017-08-15T13:44:44.035Z,35.80
2017-08-15T13:47:11.566Z,36.20
2017-08-15T13:49:39.859Z,36.30
2017-08-15T13:52:07.374Z,36.40
2017-08-15T13:54:34.936Z,36.20
2017-08-15T13:57:02.434Z,36.90
2017-08-15T13:59:29.958Z,36.70
2017-08-15T14:01:57.590Z,36.90
2017-08-15T14:04:25.130Z,36.80
2017-08-15T14:06:52.669Z,36.80
2017-08-15T14:09:20.247Z,37.90
2017-08-15T14:11:47.801Z,37.50
2017-08-15T14:14:15.322Z,40.50
2017-08-15T14:16:42.859Z,40.90
2017-08-15T14:19:10.386Z,40.00
2017-08-15T14:21:37.910Z,39.70
2017-08-15T14:24:06.182Z,40.10
2017-08-15T14:26:33.742Z,40.00
2017-08-15T14:29:01.258Z,40.60
2017-08-15T14:31:28.814Z,41.10
2017-08-15T14:33:56.332Z,40.70
2017-08-15T14:36:24.636Z,41.60
2017-08-15T14:38:52.147Z,41.60
2017-08-15T14:41:20.485Z,42.50
2017-08-15T14:43:48.016Z,42.50
2017-08-15T14:46:15.610Z,42.10
2017-08-15T14:48:43.134Z,42.40
2017-08-15T14:51:10.666Z,42.60
2017-08-15T14:53:38.189Z,42.90
2017-08-15T14:56:05.757Z,44.00
2017-08-15T14:58:33.516Z,44.20
2017-08-15T15:01:01.045Z,45.00
2017-08-15T15:03:28.594Z,45.20
2017-08-15T15:05:56.127Z,44.70
2017-08-15T15:08:23.669Z,44.60
2017-08-15T15:10:51.224Z,44.60
2017-08-15T15:13:18.737Z,44.90
2017-08-15T15:15:46.250Z,46.10
2017-08-15T15:18:13.807Z,46.50
2017-08-15T15:20:41.334Z,46.40
2017-08-15T15:23:08.950Z,46.30
2017-08-15T15:25:36.454Z,46.10
2017-08-15T15:28:03.985Z,46.70
2017-08-15T15:30:32.284Z,47.70
2017-08-15T15:32:59.909Z,47.70
2017-08-15T15:35:27.459Z,47.40
2017-08-15T15:37:55.006Z,47.10
2017-08-15T15:40:22.527Z,47.50
2017-08-15T15:42:50.096Z,48.00
2017-08-15T15:45:18.486Z,49.00
2017-08-15T15:47:46.042Z,48.60
2017-08-15T15:50:13.544Z,48.50
2017-08-15T15:52:41.106Z,49.30
2017-08-15T15:55:08.629Z,50.10
2017-08-15T15:57:36.157Z,50.30
2017-08-15T16:00:03.693Z,50.30
2017-08-15T16:02:31.243Z,50.00
2017-08-15T16:04:58.776Z,50.40
2017-08-15T16:07:26.303Z,50.20
2017-08-15T16:09:53.819Z,49.90
2017-08-15T16:12:21.346Z,49.70
2017-08-15T16:14:48.864Z,50.20
2017-08-15T16:17:17.184Z,49.70
2017-08-15T16:19:44.692Z,49.60
2017-08-15T16:22:13.000Z,50.50
2017-08-15T16:24:40.543Z,50.50
2017-08-15T16:27:08.069Z,51.00
2017-08-15T16:29:35.587Z,50.90
2017-08-15T16:32:03.179Z,50.70
2017-08-15T16:34:30.742Z,51.30
2017-08-15T16:36:58.372Z,51.50
2017-08-15T16:39:25.903Z,51.40
2017-08-15T16:41:53.467Z,51.00
2017-08-15T16:44:20.983Z,51.00
2017-08-15T16:46:48.540Z,50.80
2017-08-15T16:49:16.054Z,50.80
2017-08-15T16:51:43.604Z,51.70
2017-08-15T16:54:11.131Z,53.30
2017-08-15T16:56:38.663Z,52.10
2017-08-15T16:59:06.250Z,52.30
2017-08-15T17:01:33.746Z,53.50
2017-08-15T17:04:01.305Z,53.70
2017-08-15T17:06:28.859Z,54.30
2017-08-15T17:08:56.435Z,54.40
2017-08-15T17:11:23.973Z,54.70
2017-08-15T17:13:52.283Z,54.70
2017-08-15T17:16:19.810Z,54.70
2017-08-15T17:18:47.354Z,55.10
2017-08-15T17:21:14.889Z,56.10
2017-08-15T17:23:42.448Z,55.70
2017-08-15T17:26:09.948Z,56.00
2017-08-15T17:28:37.504Z,56.10
2017-08-15T17:31:05.789Z,56.20
2017-08-15T17:33:33.316Z,56.10
2017-08-15T17:36:00.868Z,56.30
2017-08-15T17:38:28.428Z,57.00
2017-08-15T17:40:55.990Z,56.80
2017-08-15T17:43:23.548Z,56.80
2017-08-15T17:45:51.061Z,56.20
2017-08-15T17:48:18.611Z,55.90
2017-08-15T17:50:46.143Z,55.70
2017-08-15T17:53:13.731Z,55.50
2017-08-15T17:55:41.281Z,55.90
2017-08-15T17:58:08.815Z,56.00
2017-08-15T18:00:36.358Z,56.20
2017-08-15T18:03:03.910Z,56.40
2017-08-15T18:05:31.458Z,55.80
2017-08-15T18:07:58.994Z,56.30
2017-08-15T18:10:26.518Z,55.80
2017-08-15T18:12:54.059Z,55.70
2017-08-15T18:15:21.559Z,55.80
2017-08-15T18:17:49.867Z,55.50
2017-08-15T18:20:17.403Z,55.50
2017-08-15T18:22:44.942Z,55.40
2017-08-15T18:25:12.447Z,55.70
2017-08-15T18:27:39.990Z,56.70
2017-08-15T18:30:07.499Z,56.90
2017-08-15T18:32:35.036Z,56.70
2017-08-15T18:35:02.568Z,57.50
2017-08-15T18:37:30.113Z,57.10
2017-08-15T18:39:57.689Z,56.80
2017-08-15T18:42:25.235Z,57.60
2017-08-15T18:44:53.537Z,56.80
2017-08-15T18:47:21.094Z,56.80
2017-08-15T18:49:48.618Z,56.60
2017-08-15T18:52:16.903Z,57.70
2017-08-15T18:54:44.471Z,57.60
2017-08-15T18:57:11.990Z,57.60
2017-08-15T18:59:39.531Z,57.80
2017-08-15T19:02:07.062Z,57.60
2017-08-15T19:04:34.602Z,57.30
2017-08-15T19:07:02.112Z,57.30
2017-08-15T19:09:29.706Z,57.40
2017-08-15T19:11:58.019Z,58.40
2017-08-15T19:14:25.574Z,58.00
2017-08-15T19:16:53.138Z,57.70
2017-08-15T19:19:20.672Z,57.50
2017-08-15T19:21:48.949Z,56.60
2017-08-15T19:24:17.253Z,56.60
2017-08-15T19:26:44.786Z,56.90
2017-08-15T19:29:12.415Z,57.20
2017-08-15T19:31:39.933Z,57.70
2017-08-15T19:34:07.490Z,57.40
2017-08-15T19:36:35.002Z,57.00
2017-08-15T19:39:02.582Z,56.30
2017-08-15T19:41:30.879Z,56.60
2017-08-15T19:43:58.500Z,56.00
2017-08-15T19:46:26.092Z,56.00
2017-08-15T19:48:54.394Z,56.40
2017-08-15T19:51:21.912Z,56.40
2017-08-15T19:53:49.459Z,56.20
2017-08-15T19:56:17.025Z,56.50
2017-08-15T19:58:44.611Z,56.70
2017-08-15T20:01:12.901Z,56.60
2017-08-15T20:03:40.493Z,56.60
2017-08-15T20:06:08.055Z,56.40
2017-08-15T20:08:35.615Z,56.10
2017-08-15T20:11:03.176Z,56.10
2017-08-15T20:13:30.750Z,55.70
2017-08-15T20:15:58.310Z,55.50
2017-08-15T20:18:25.888Z,55.80
2017-08-15T20:20:53.474Z,55.70
2017-08-15T20:23:21.113Z,55.80
2017-08-15T20:25:48.687Z,56.50
2017-08-15T20:28:16.297Z,56.50
2017-08-15T20:30:43.823Z,57.10
2017-08-15T20:33:11.377Z,57.50
2017-08-15T20:35:38.938Z,58.00
2017-08-15T20:38:06.519Z,58.10
2017-08-15T20:40:34.046Z,57.90
2017-08-15T20:43:01.635Z,57.80
2017-08-15T20:45:29.182Z,57.60
2017-08-15T20:47:57.514Z,58.00
2017-08-15T20:50:25.126Z,58.00
2017-08-15T20:52:52.681Z,58.20
2017-08-15T20:55:20.300Z,58.20
2017-08-15T20:57:47.806Z,58.10
2017-08-15T21:00:15.338Z,58.20
2017-08-15T21:02:42.879Z,59.00
2017-08-15T21:05:10.422Z,58.50
2017-08-15T21:07:37.987Z,58.60
2017-08-15T21:10:05.631Z,58.40
2017-08-15T21:12:33.218Z,58.70
2017-08-15T21:15:00.777Z,58.20
2017-08-15T21:17:28.304Z,58.20
2017-08-15T21:19:55.862Z,58.50
2017-08-15T21:22:23.429Z,58.70
2017-08-15T21:24:51.067Z,59.60
2017-08-15T21:27:18.678Z,59.50
2017-08-15T21:29:46.287Z,59.80
2017-08-15T21:32:13.862Z,59.50
2017-08-15T21:34:41.415Z,59.60
2017-08-15T21:37:08.970Z,59.30
2017-08-15T21:39:36.521Z,59.40
2017-08-15T21:42:04.065Z,59.30
2017-08-15T21:44:31.627Z,59.90
2017-08-15T21:46:59.132Z,59.90
2017-08-15T21:49:26.674Z,60.40
2017-08-15T21:51:54.217Z,60.60
2017-08-15T21:54:22.521Z,59.50
2017-08-15T21:56:50.049Z,59.50
2017-08-15T21:59:18.351Z,60.50
2017-08-15T22:01:51.622Z,60.50
2017-08-15T22:04:19.167Z,60.00
2017-08-15T22:06:46.674Z,59.70
2017-08-15T22:09:14.201Z,59.50
2017-08-15T22:11:41.772Z,59.70
2017-08-15T22:14:09.330Z,60.60
2017-08-15T22:16:36.847Z,60.20
2017-08-15T22:19:04.439Z,59.80
2017-08-15T22:21:32.728Z,59.50
2017-08-15T22:24:00.305Z,58.80
2017-08-15T22:26:27.842Z,58.40
2017-08-15T22:28:55.402Z,58.50
2017-08-15T22:31:22.939Z,58.20
2017-08-15T22:33:50.461Z,58.20
2017-08-15T22:36:17.995Z,58.90
2017-08-15T22:38:45.554Z,59.00
2017-08-15T22:41:13.103Z,58.90
2017-08-15T22:43:40.647Z,59.10
2017-08-15T22:46:08.172Z,59.00
2017-08-15T22:48:35.750Z,58.70
2017-08-15T22:51:03.286Z,58.60
2017-08-15T22:53:30.813Z,59.00
2017-08-15T22:55:58.339Z,59.00
2017-08-15T22:58:25.871Z,59.50
2017-08-15T23:00:53.426Z,58.90
2017-08-15T23:03:20.969Z,59.20
2017-08-15T23:05:48.527Z,58.00
2017-08-15T23:08:16.043Z,58.10
2017-08-15T23:10:43.597Z,58.60
2017-08-15T23:13:11.193Z,58.40
2017-08-15T23:15:38.726Z,58.30
2017-08-15T23:18:06.271Z,58.60
2017-08-15T23:20:33.845Z,58.60
2017-08-15T23:23:01.412Z,58.60
2017-08-15T23:25:29.698Z,59.00
2017-08-15T23:27:57.996Z,58.50
2017-08-15T23:30:25.534Z,58.50
2017-08-15T23:32:53.093Z,59.20
2017-08-15T23:35:21.452Z,59.00
2017-08-15T23:37:49.806Z,58.80
2017-08-15T23:40:17.367Z,58.80
2017-08-15T23:42:44.922Z,58.70
2017-08-15T23:45:12.498Z,58.70
2017-08-15T23:47:40.031Z,58.90
2017-08-15T23:50:07.558Z,59.50
2017-08-15T23:52:35.126Z,59.60
2017-08-15T23:55:02.656Z,59.70
2017-08-15T23:57:30.959Z,60.00
2017-08-15T23:59:58.498Z,60.40
